This is the latest recevied weather packets stored in our database for station/object K7JGC-9. If no packets are shown the sender has not sent any weather packets the latest 10 day(s).
| Time | Temp. | Humidity | Pressure | Rain* | Wind** | Luminosity | Snow |
|---|---|---|---|---|---|---|---|
| 1778077365 | 13.89° C | 82% | 1020.9 hPa | 0 mm | - | 19 W/m² | - |
| 1778075559 | 13.89° C | 85% | 1020.6 hPa | 0 mm | - | 15 W/m² | - |
| 1778073758 | 13.33° C | 87% | 1020.5 hPa | 0 mm | - | 7 W/m² | - |
| 1778071953 | 13.33° C | 86% | 1020.1 hPa | 0 mm | - | 1 W/m² | - |
| 1778070149 | 13.89° C | 85% | 1020.1 hPa | 0 mm | - | 0 W/m² | - |
| 1778068347 | 13.89° C | 84% | 1019.8 hPa | 0 mm | - | 0 W/m² | - |
| 1778066542 | 13.89° C | 84% | 1019.8 hPa | 0 mm | - | 0 W/m² | - |
| 1778064743 | 13.89° C | 83% | 1019.3 hPa | 0 mm | - | 0 W/m² | - |
| 1778062939 | 13.89° C | 84% | 1018.9 hPa | 0 mm | - | 0 W/m² | - |
| 1778061135 | 13.89° C | 83% | 1018.6 hPa | 0 mm | - | 0 W/m² | - |
| 1778059331 | 14.44° C | 82% | 1018.3 hPa | 0 mm | - | 0 W/m² | - |
| 1778057531 | 14.44° C | 82% | 1018.3 hPa | 0 mm | - | 0 W/m² | - |
| 1778055728 | 14.44° C | 82% | 1018.5 hPa | 0 mm | - | 0 W/m² | - |
| 1778053923 | 14.44° C | 84% | 1018.2 hPa | 0 mm | - | 0 W/m² | - |
| 1778052119 | 14.44° C | 87% | 1018 hPa | 0 mm | - | 0 W/m² | - |
| 1778050314 | 14.44° C | 87% | 1017.7 hPa | 0 mm | - | 0 W/m² | - |
| 1778048514 | 14.44° C | 88% | 1017.7 hPa | 0 mm | - | 0 W/m² | - |
| 1778046715 | 13.89° C | 88% | 1017.4 hPa | 0 mm | - | 0 W/m² | - |
| 1778044911 | 13.33° C | 89% | 1017.3 hPa | 0 mm | - | 0 W/m² | - |
| 1778043110 | 12.78° C | 89% | 1017.1 hPa | 0 mm | - | 0 W/m² | - |
| 1778041309 | 13.33° C | 87% | 1016.8 hPa | 0 mm | - | 0 W/m² | - |
| 1778039509 | 13.89° C | 85% | 1016.4 hPa | 0 mm | - | 0 W/m² | - |
| 1778037709 | 15° C | 81% | 1016.1 hPa | 0 mm | - | 1 W/m² | - |
| 1778035908 | 15.56° C | 78% | 1015.9 hPa | 0 mm | - | 11 W/m² | - |
| 1778034107 | 16.67° C | 75% | 1016.1 hPa | 0 mm | - | 15 W/m² | - |
* Rain latest hour (hover to see other rain measurements)
** Current wind speed in m/s (hover to see current wind gust speed)